sensor_id;sensor_type;location;lat;lon;timestamp;P1;durP1;ratioP1;P2;durP2;ratioP2
7519;SDS011;3801;48.876;10.184;2022-12-07T00:02:37;22.53;;;11.67;;
7519;SDS011;3801;48.876;10.184;2022-12-07T00:07:42;23.87;;;11.80;;
7519;SDS011;3801;48.876;10.184;2022-12-07T00:12:45;20.67;;;11.57;;
7519;SDS011;3801;48.876;10.184;2022-12-07T00:17:48;22.73;;;11.40;;
7519;SDS011;3801;48.876;10.184;2022-12-07T00:22:53;21.53;;;10.87;;
7519;SDS011;3801;48.876;10.184;2022-12-07T00:27:57;17.57;;;10.93;;
7519;SDS011;3801;48.876;10.184;2022-12-07T00:33:00;19.00;;;10.07;;
7519;SDS011;3801;48.876;10.184;2022-12-07T00:38:05;19.67;;;10.73;;
7519;SDS011;3801;48.876;10.184;2022-12-07T00:43:09;16.33;;;9.77;;
7519;SDS011;3801;48.876;10.184;2022-12-07T00:48:13;19.00;;;10.93;;
7519;SDS011;3801;48.876;10.184;2022-12-07T00:53:18;19.60;;;11.93;;
7519;SDS011;3801;48.876;10.184;2022-12-07T00:58:21;15.53;;;9.50;;
7519;SDS011;3801;48.876;10.184;2022-12-07T01:03:25;16.60;;;9.80;;
7519;SDS011;3801;48.876;10.184;2022-12-07T01:08:30;13.17;;;8.40;;
7519;SDS011;3801;48.876;10.184;2022-12-07T01:13:34;14.33;;;9.77;;
7519;SDS011;3801;48.876;10.184;2022-12-07T01:18:38;14.53;;;9.20;;
7519;SDS011;3801;48.876;10.184;2022-12-07T01:23:44;14.77;;;9.10;;
7519;SDS011;3801;48.876;10.184;2022-12-07T01:28:47;15.17;;;9.47;;
7519;SDS011;3801;48.876;10.184;2022-12-07T01:33:52;14.60;;;8.70;;
7519;SDS011;3801;48.876;10.184;2022-12-07T01:38:57;14.57;;;8.90;;
7519;SDS011;3801;48.876;10.184;2022-12-07T01:44:11;15.17;;;9.50;;
7519;SDS011;3801;48.876;10.184;2022-12-07T01:49:17;16.10;;;9.13;;
7519;SDS011;3801;48.876;10.184;2022-12-07T01:54:23;16.10;;;9.90;;
7519;SDS011;3801;48.876;10.184;2022-12-07T01:59:27;14.10;;;9.43;;
7519;SDS011;3801;48.876;10.184;2022-12-07T02:04:31;13.07;;;9.03;;
7519;SDS011;3801;48.876;10.184;2022-12-07T02:09:36;16.97;;;9.30;;
7519;SDS011;3801;48.876;10.184;2022-12-07T02:14:40;15.17;;;8.70;;
7519;SDS011;3801;48.876;10.184;2022-12-07T02:20:06;14.63;;;9.13;;
7519;SDS011;3801;48.876;10.184;2022-12-07T02:25:13;13.87;;;8.73;;
7519;SDS011;3801;48.876;10.184;2022-12-07T02:30:23;16.13;;;9.33;;
7519;SDS011;3801;48.876;10.184;2022-12-07T02:35:28;13.73;;;8.90;;
7519;SDS011;3801;48.876;10.184;2022-12-07T02:40:35;16.03;;;10.07;;
7519;SDS011;3801;48.876;10.184;2022-12-07T02:45:41;17.93;;;10.47;;
7519;SDS011;3801;48.876;10.184;2022-12-07T02:50:47;21.10;;;10.80;;
7519;SDS011;3801;48.876;10.184;2022-12-07T02:55:51;17.93;;;9.77;;
7519;SDS011;3801;48.876;10.184;2022-12-07T03:00:58;16.53;;;9.53;;
7519;SDS011;3801;48.876;10.184;2022-12-07T03:06:10;22.83;;;11.50;;
7519;SDS011;3801;48.876;10.184;2022-12-07T03:11:16;17.30;;;10.83;;
7519;SDS011;3801;48.876;10.184;2022-12-07T03:16:25;17.00;;;9.87;;
7519;SDS011;3801;48.876;10.184;2022-12-07T03:21:31;17.40;;;9.97;;
7519;SDS011;3801;48.876;10.184;2022-12-07T03:26:36;17.03;;;10.43;;
7519;SDS011;3801;48.876;10.184;2022-12-07T03:31:43;16.77;;;10.07;;
7519;SDS011;3801;48.876;10.184;2022-12-07T03:36:50;15.63;;;9.13;;
7519;SDS011;3801;48.876;10.184;2022-12-07T03:41:58;17.50;;;9.40;;
7519;SDS011;3801;48.876;10.184;2022-12-07T03:47:05;15.13;;;9.07;;
7519;SDS011;3801;48.876;10.184;2022-12-07T03:52:12;18.63;;;9.60;;
7519;SDS011;3801;48.876;10.184;2022-12-07T03:57:17;13.83;;;8.33;;
7519;SDS011;3801;48.876;10.184;2022-12-07T04:02:23;15.67;;;9.63;;
7519;SDS011;3801;48.876;10.184;2022-12-07T04:07:27;14.67;;;8.77;;
7519;SDS011;3801;48.876;10.184;2022-12-07T04:12:30;13.13;;;8.23;;
7519;SDS011;3801;48.876;10.184;2022-12-07T04:17:35;13.23;;;8.10;;
7519;SDS011;3801;48.876;10.184;2022-12-07T04:22:39;13.37;;;8.10;;
7519;SDS011;3801;48.876;10.184;2022-12-07T04:27:43;16.60;;;9.20;;
7519;SDS011;3801;48.876;10.184;2022-12-07T04:32:48;15.00;;;8.03;;
7519;SDS011;3801;48.876;10.184;2022-12-07T04:37:52;14.97;;;7.87;;
7519;SDS011;3801;48.876;10.184;2022-12-07T04:42:55;11.97;;;7.03;;
7519;SDS011;3801;48.876;10.184;2022-12-07T04:48:00;10.73;;;6.10;;
7519;SDS011;3801;48.876;10.184;2022-12-07T04:53:03;11.40;;;6.63;;
7519;SDS011;3801;48.876;10.184;2022-12-07T04:58:07;12.53;;;7.80;;
7519;SDS011;3801;48.876;10.184;2022-12-07T05:03:12;10.37;;;6.60;;
7519;SDS011;3801;48.876;10.184;2022-12-07T05:08:15;8.73;;;5.67;;
7519;SDS011;3801;48.876;10.184;2022-12-07T05:13:18;13.73;;;8.07;;
7519;SDS011;3801;48.876;10.184;2022-12-07T05:18:23;13.03;;;8.30;;
7519;SDS011;3801;48.876;10.184;2022-12-07T05:23:26;11.37;;;6.87;;
7519;SDS011;3801;48.876;10.184;2022-12-07T05:28:30;10.63;;;7.30;;
7519;SDS011;3801;48.876;10.184;2022-12-07T05:33:34;12.60;;;7.73;;
7519;SDS011;3801;48.876;10.184;2022-12-07T05:38:38;13.47;;;7.60;;
7519;SDS011;3801;48.876;10.184;2022-12-07T05:43:41;11.47;;;6.50;;
7519;SDS011;3801;48.876;10.184;2022-12-07T05:48:46;10.27;;;6.37;;
7519;SDS011;3801;48.876;10.184;2022-12-07T05:53:49;11.00;;;7.27;;
7519;SDS011;3801;48.876;10.184;2022-12-07T05:58:52;11.87;;;7.23;;
7519;SDS011;3801;48.876;10.184;2022-12-07T06:04:15;15.67;;;9.10;;
7519;SDS011;3801;48.876;10.184;2022-12-07T06:09:18;13.03;;;7.93;;
7519;SDS011;3801;48.876;10.184;2022-12-07T06:14:22;14.90;;;9.37;;
7519;SDS011;3801;48.876;10.184;2022-12-07T06:19:26;22.93;;;12.03;;
7519;SDS011;3801;48.876;10.184;2022-12-07T06:24:30;18.17;;;10.10;;
7519;SDS011;3801;48.876;10.184;2022-12-07T06:29:33;18.37;;;10.70;;
7519;SDS011;3801;48.876;10.184;2022-12-07T06:34:38;20.87;;;10.83;;
7519;SDS011;3801;48.876;10.184;2022-12-07T06:39:41;22.13;;;11.50;;
7519;SDS011;3801;48.876;10.184;2022-12-07T06:44:45;23.03;;;12.30;;
7519;SDS011;3801;48.876;10.184;2022-12-07T06:49:49;23.00;;;12.63;;
7519;SDS011;3801;48.876;10.184;2022-12-07T06:54:53;22.30;;;12.27;;
7519;SDS011;3801;48.876;10.184;2022-12-07T06:59:56;23.00;;;12.10;;
7519;SDS011;3801;48.876;10.184;2022-12-07T07:05:01;19.10;;;11.27;;
7519;SDS011;3801;48.876;10.184;2022-12-07T07:10:05;18.87;;;11.07;;
7519;SDS011;3801;48.876;10.184;2022-12-07T07:15:09;17.87;;;10.70;;
7519;SDS011;3801;48.876;10.184;2022-12-07T07:20:14;19.10;;;10.13;;
7519;SDS011;3801;48.876;10.184;2022-12-07T07:25:18;14.90;;;9.77;;
7519;SDS011;3801;48.876;10.184;2022-12-07T07:30:21;21.03;;;10.70;;
7519;SDS011;3801;48.876;10.184;2022-12-07T07:35:26;22.83;;;10.77;;
7519;SDS011;3801;48.876;10.184;2022-12-07T07:40:29;15.30;;;9.43;;
7519;SDS011;3801;48.876;10.184;2022-12-07T07:45:33;14.03;;;8.07;;
7519;SDS011;3801;48.876;10.184;2022-12-07T07:50:37;18.10;;;9.70;;
7519;SDS011;3801;48.876;10.184;2022-12-07T07:55:40;16.07;;;8.30;;
7519;SDS011;3801;48.876;10.184;2022-12-07T08:00:44;17.13;;;9.03;;
7519;SDS011;3801;48.876;10.184;2022-12-07T08:05:48;15.90;;;8.57;;
7519;SDS011;3801;48.876;10.184;2022-12-07T08:10:52;14.53;;;7.87;;
7519;SDS011;3801;48.876;10.184;2022-12-07T08:15:55;12.70;;;7.60;;
7519;SDS011;3801;48.876;10.184;2022-12-07T08:21:00;13.20;;;6.80;;
7519;SDS011;3801;48.876;10.184;2022-12-07T08:26:05;14.67;;;8.13;;
7519;SDS011;3801;48.876;10.184;2022-12-07T08:31:10;12.57;;;7.03;;
7519;SDS011;3801;48.876;10.184;2022-12-07T08:36:15;17.03;;;9.20;;
7519;SDS011;3801;48.876;10.184;2022-12-07T08:41:19;13.50;;;7.43;;
7519;SDS011;3801;48.876;10.184;2022-12-07T08:46:23;17.93;;;12.40;;
7519;SDS011;3801;48.876;10.184;2022-12-07T08:51:30;13.30;;;8.43;;
7519;SDS011;3801;48.876;10.184;2022-12-07T08:56:33;10.40;;;6.67;;
7519;SDS011;3801;48.876;10.184;2022-12-07T09:01:37;10.83;;;6.80;;
7519;SDS011;3801;48.876;10.184;2022-12-07T09:06:42;12.23;;;6.53;;
7519;SDS011;3801;48.876;10.184;2022-12-07T09:11:45;13.07;;;6.77;;
7519;SDS011;3801;48.876;10.184;2022-12-07T09:16:49;13.07;;;7.27;;
7519;SDS011;3801;48.876;10.184;2022-12-07T09:21:53;11.70;;;7.00;;
7519;SDS011;3801;48.876;10.184;2022-12-07T09:26:56;9.77;;;5.90;;
7519;SDS011;3801;48.876;10.184;2022-12-07T09:32:00;12.23;;;7.37;;
7519;SDS011;3801;48.876;10.184;2022-12-07T09:37:12;10.23;;;6.53;;
7519;SDS011;3801;48.876;10.184;2022-12-07T09:42:18;8.00;;;4.87;;
7519;SDS011;3801;48.876;10.184;2022-12-07T09:47:27;9.77;;;6.27;;
7519;SDS011;3801;48.876;10.184;2022-12-07T09:52:33;11.00;;;6.70;;
7519;SDS011;3801;48.876;10.184;2022-12-07T09:57:40;8.83;;;5.40;;
7519;SDS011;3801;48.876;10.184;2022-12-07T10:02:44;9.87;;;5.80;;
7519;SDS011;3801;48.876;10.184;2022-12-07T10:07:49;8.97;;;5.37;;
7519;SDS011;3801;48.876;10.184;2022-12-07T10:12:57;11.67;;;5.90;;
7519;SDS011;3801;48.876;10.184;2022-12-07T10:18:00;10.23;;;6.23;;
7519;SDS011;3801;48.876;10.184;2022-12-07T10:23:05;9.37;;;5.73;;
7519;SDS011;3801;48.876;10.184;2022-12-07T10:28:17;10.00;;;5.70;;
7519;SDS011;3801;48.876;10.184;2022-12-07T10:33:27;10.00;;;5.97;;
7519;SDS011;3801;48.876;10.184;2022-12-07T10:38:32;16.37;;;8.80;;
7519;SDS011;3801;48.876;10.184;2022-12-07T10:43:35;9.53;;;6.43;;
7519;SDS011;3801;48.876;10.184;2022-12-07T10:48:40;10.80;;;5.80;;
7519;SDS011;3801;48.876;10.184;2022-12-07T10:53:52;8.00;;;4.90;;
7519;SDS011;3801;48.876;10.184;2022-12-07T10:59:01;9.93;;;5.97;;
7519;SDS011;3801;48.876;10.184;2022-12-07T11:04:10;11.93;;;6.67;;
7519;SDS011;3801;48.876;10.184;2022-12-07T11:09:28;10.63;;;6.07;;
7519;SDS011;3801;48.876;10.184;2022-12-07T11:15:00;10.53;;;5.97;;
7519;SDS011;3801;48.876;10.184;2022-12-07T11:20:11;11.80;;;6.60;;
7519;SDS011;3801;48.876;10.184;2022-12-07T11:25:20;10.03;;;6.17;;
7519;SDS011;3801;48.876;10.184;2022-12-07T11:30:31;10.93;;;6.03;;
7519;SDS011;3801;48.876;10.184;2022-12-07T11:35:38;11.00;;;6.03;;
7519;SDS011;3801;48.876;10.184;2022-12-07T11:40:47;9.40;;;6.30;;
7519;SDS011;3801;48.876;10.184;2022-12-07T11:45:52;9.40;;;6.23;;
7519;SDS011;3801;48.876;10.184;2022-12-07T11:50:59;12.10;;;5.93;;
7519;SDS011;3801;48.876;10.184;2022-12-07T11:56:07;11.87;;;7.03;;
7519;SDS011;3801;48.876;10.184;2022-12-07T12:01:14;15.97;;;7.90;;
7519;SDS011;3801;48.876;10.184;2022-12-07T12:06:18;13.63;;;6.93;;
7519;SDS011;3801;48.876;10.184;2022-12-07T12:11:29;11.00;;;6.03;;
7519;SDS011;3801;48.876;10.184;2022-12-07T12:16:43;10.50;;;6.07;;
7519;SDS011;3801;48.876;10.184;2022-12-07T12:21:53;10.70;;;6.20;;
7519;SDS011;3801;48.876;10.184;2022-12-07T12:27:01;9.57;;;5.87;;
7519;SDS011;3801;48.876;10.184;2022-12-07T12:32:13;11.03;;;6.70;;
7519;SDS011;3801;48.876;10.184;2022-12-07T12:42:45;14.17;;;7.73;;
7519;SDS011;3801;48.876;10.184;2022-12-07T12:53:02;11.40;;;6.67;;
7519;SDS011;3801;48.876;10.184;2022-12-07T12:58:28;12.70;;;7.20;;
7519;SDS011;3801;48.876;10.184;2022-12-07T13:03:32;11.23;;;6.10;;
7519;SDS011;3801;48.876;10.184;2022-12-07T13:08:35;10.90;;;6.33;;
7519;SDS011;3801;48.876;10.184;2022-12-07T13:13:44;8.17;;;5.20;;
7519;SDS011;3801;48.876;10.184;2022-12-07T13:18:47;8.43;;;6.00;;
7519;SDS011;3801;48.876;10.184;2022-12-07T13:23:54;7.63;;;5.33;;
7519;SDS011;3801;48.876;10.184;2022-12-07T13:29:06;8.80;;;6.20;;
7519;SDS011;3801;48.876;10.184;2022-12-07T13:34:27;8.90;;;5.60;;
7519;SDS011;3801;48.876;10.184;2022-12-07T13:39:32;10.67;;;6.10;;
7519;SDS011;3801;48.876;10.184;2022-12-07T13:44:39;10.47;;;5.90;;
7519;SDS011;3801;48.876;10.184;2022-12-07T13:49:46;10.40;;;6.97;;
7519;SDS011;3801;48.876;10.184;2022-12-07T13:54:55;9.67;;;6.27;;
7519;SDS011;3801;48.876;10.184;2022-12-07T14:00:01;12.57;;;6.47;;
7519;SDS011;3801;48.876;10.184;2022-12-07T14:05:07;11.20;;;7.40;;
7519;SDS011;3801;48.876;10.184;2022-12-07T14:10:22;10.07;;;6.20;;
7519;SDS011;3801;48.876;10.184;2022-12-07T14:15:28;9.07;;;5.43;;
7519;SDS011;3801;48.876;10.184;2022-12-07T14:20:32;11.77;;;7.17;;
7519;SDS011;3801;48.876;10.184;2022-12-07T14:25:44;15.13;;;11.37;;
7519;SDS011;3801;48.876;10.184;2022-12-07T14:30:53;9.73;;;7.00;;
7519;SDS011;3801;48.876;10.184;2022-12-07T14:35:57;13.33;;;7.53;;
7519;SDS011;3801;48.876;10.184;2022-12-07T14:41:00;14.43;;;7.93;;
7519;SDS011;3801;48.876;10.184;2022-12-07T14:46:19;10.23;;;6.60;;
7519;SDS011;3801;48.876;10.184;2022-12-07T14:51:22;8.70;;;5.47;;
7519;SDS011;3801;48.876;10.184;2022-12-07T14:56:45;11.33;;;6.70;;
7519;SDS011;3801;48.876;10.184;2022-12-07T15:01:52;9.70;;;6.57;;
7519;SDS011;3801;48.876;10.184;2022-12-07T15:06:56;13.53;;;8.80;;
7519;SDS011;3801;48.876;10.184;2022-12-07T15:11:59;10.37;;;7.03;;
7519;SDS011;3801;48.876;10.184;2022-12-07T15:17:04;8.50;;;5.93;;
7519;SDS011;3801;48.876;10.184;2022-12-07T15:22:12;11.33;;;7.53;;
7519;SDS011;3801;48.876;10.184;2022-12-07T15:27:16;11.87;;;7.90;;
7519;SDS011;3801;48.876;10.184;2022-12-07T15:32:20;9.40;;;7.30;;
7519;SDS011;3801;48.876;10.184;2022-12-07T15:37:24;10.57;;;7.77;;
7519;SDS011;3801;48.876;10.184;2022-12-07T15:42:28;14.10;;;7.87;;
7519;SDS011;3801;48.876;10.184;2022-12-07T15:47:33;10.87;;;7.40;;
7519;SDS011;3801;48.876;10.184;2022-12-07T15:52:56;12.57;;;7.67;;
7519;SDS011;3801;48.876;10.184;2022-12-07T15:57:59;19.33;;;10.87;;
7519;SDS011;3801;48.876;10.184;2022-12-07T16:03:04;12.50;;;8.50;;
7519;SDS011;3801;48.876;10.184;2022-12-07T16:08:07;13.43;;;8.23;;
7519;SDS011;3801;48.876;10.184;2022-12-07T16:13:11;12.97;;;7.63;;
7519;SDS011;3801;48.876;10.184;2022-12-07T16:18:16;13.40;;;7.90;;
7519;SDS011;3801;48.876;10.184;2022-12-07T16:23:20;14.30;;;8.60;;
7519;SDS011;3801;48.876;10.184;2022-12-07T16:28:23;11.60;;;7.33;;
7519;SDS011;3801;48.876;10.184;2022-12-07T16:33:28;7.90;;;6.23;;
7519;SDS011;3801;48.876;10.184;2022-12-07T16:38:31;10.47;;;7.27;;
7519;SDS011;3801;48.876;10.184;2022-12-07T16:43:34;9.83;;;6.73;;
7519;SDS011;3801;48.876;10.184;2022-12-07T16:48:40;11.07;;;6.40;;
7519;SDS011;3801;48.876;10.184;2022-12-07T16:53:43;18.10;;;9.00;;
7519;SDS011;3801;48.876;10.184;2022-12-07T16:58:46;13.30;;;7.67;;
7519;SDS011;3801;48.876;10.184;2022-12-07T17:03:53;15.80;;;9.53;;
7519;SDS011;3801;48.876;10.184;2022-12-07T17:08:56;27.10;;;14.17;;
7519;SDS011;3801;48.876;10.184;2022-12-07T17:14:00;21.57;;;11.00;;
7519;SDS011;3801;48.876;10.184;2022-12-07T17:19:22;26.17;;;13.03;;
7519;SDS011;3801;48.876;10.184;2022-12-07T17:24:26;33.30;;;15.77;;
7519;SDS011;3801;48.876;10.184;2022-12-07T17:29:30;17.43;;;10.67;;
7519;SDS011;3801;48.876;10.184;2022-12-07T17:34:34;15.37;;;9.97;;
7519;SDS011;3801;48.876;10.184;2022-12-07T17:39:38;16.60;;;9.67;;
7519;SDS011;3801;48.876;10.184;2022-12-07T17:44:42;20.27;;;12.13;;
7519;SDS011;3801;48.876;10.184;2022-12-07T17:49:46;19.63;;;10.03;;
7519;SDS011;3801;48.876;10.184;2022-12-07T17:54:50;14.33;;;9.03;;
7519;SDS011;3801;48.876;10.184;2022-12-07T17:59:53;13.07;;;8.47;;
7519;SDS011;3801;48.876;10.184;2022-12-07T18:04:58;17.33;;;10.23;;
7519;SDS011;3801;48.876;10.184;2022-12-07T18:10:02;15.80;;;9.67;;
7519;SDS011;3801;48.876;10.184;2022-12-07T18:15:08;13.23;;;6.17;;
7519;SDS011;3801;48.876;10.184;2022-12-07T18:20:13;15.20;;;8.90;;
7519;SDS011;3801;48.876;10.184;2022-12-07T18:25:16;14.90;;;9.57;;
7519;SDS011;3801;48.876;10.184;2022-12-07T18:30:20;13.77;;;9.63;;
7519;SDS011;3801;48.876;10.184;2022-12-07T18:35:44;14.77;;;8.67;;
7519;SDS011;3801;48.876;10.184;2022-12-07T18:40:48;15.53;;;8.83;;
7519;SDS011;3801;48.876;10.184;2022-12-07T18:45:51;15.13;;;9.73;;
7519;SDS011;3801;48.876;10.184;2022-12-07T18:50:59;19.97;;;11.23;;
7519;SDS011;3801;48.876;10.184;2022-12-07T18:56:04;21.07;;;11.97;;
7519;SDS011;3801;48.876;10.184;2022-12-07T19:01:08;20.57;;;11.13;;
7519;SDS011;3801;48.876;10.184;2022-12-07T19:06:12;21.40;;;11.07;;
7519;SDS011;3801;48.876;10.184;2022-12-07T19:11:16;24.13;;;12.10;;
7519;SDS011;3801;48.876;10.184;2022-12-07T19:16:39;20.47;;;12.50;;
7519;SDS011;3801;48.876;10.184;2022-12-07T19:21:44;20.93;;;12.13;;
7519;SDS011;3801;48.876;10.184;2022-12-07T19:26:48;25.20;;;14.47;;
7519;SDS011;3801;48.876;10.184;2022-12-07T19:31:51;22.50;;;12.10;;
7519;SDS011;3801;48.876;10.184;2022-12-07T19:36:56;17.70;;;10.40;;
7519;SDS011;3801;48.876;10.184;2022-12-07T19:41:59;22.67;;;11.20;;
7519;SDS011;3801;48.876;10.184;2022-12-07T19:47:03;23.70;;;11.90;;
7519;SDS011;3801;48.876;10.184;2022-12-07T19:52:09;14.70;;;8.50;;
7519;SDS011;3801;48.876;10.184;2022-12-07T19:57:13;19.03;;;9.93;;
7519;SDS011;3801;48.876;10.184;2022-12-07T20:02:18;18.27;;;9.83;;
7519;SDS011;3801;48.876;10.184;2022-12-07T20:07:23;16.17;;;9.87;;
7519;SDS011;3801;48.876;10.184;2022-12-07T20:12:26;17.23;;;9.37;;
7519;SDS011;3801;48.876;10.184;2022-12-07T20:17:46;16.93;;;8.27;;
7519;SDS011;3801;48.876;10.184;2022-12-07T20:22:51;16.20;;;8.03;;
7519;SDS011;3801;48.876;10.184;2022-12-07T20:27:54;15.73;;;9.33;;
7519;SDS011;3801;48.876;10.184;2022-12-07T20:32:58;14.97;;;9.30;;
7519;SDS011;3801;48.876;10.184;2022-12-07T20:38:03;24.47;;;13.50;;
7519;SDS011;3801;48.876;10.184;2022-12-07T20:43:07;16.37;;;8.93;;
7519;SDS011;3801;48.876;10.184;2022-12-07T20:48:10;15.93;;;9.13;;
7519;SDS011;3801;48.876;10.184;2022-12-07T20:53:15;15.60;;;8.90;;
7519;SDS011;3801;48.876;10.184;2022-12-07T20:58:19;17.57;;;10.60;;
7519;SDS011;3801;48.876;10.184;2022-12-07T21:03:28;17.33;;;8.90;;
7519;SDS011;3801;48.876;10.184;2022-12-07T21:08:33;15.80;;;8.50;;
7519;SDS011;3801;48.876;10.184;2022-12-07T21:13:37;13.40;;;8.17;;
7519;SDS011;3801;48.876;10.184;2022-12-07T21:18:40;17.17;;;8.60;;
7519;SDS011;3801;48.876;10.184;2022-12-07T21:23:48;13.63;;;7.90;;
7519;SDS011;3801;48.876;10.184;2022-12-07T21:28:55;16.27;;;8.57;;
7519;SDS011;3801;48.876;10.184;2022-12-07T21:33:59;10.50;;;7.37;;
7519;SDS011;3801;48.876;10.184;2022-12-07T21:39:04;16.53;;;8.53;;
7519;SDS011;3801;48.876;10.184;2022-12-07T21:44:08;15.40;;;8.83;;
7519;SDS011;3801;48.876;10.184;2022-12-07T21:49:13;11.80;;;7.27;;
7519;SDS011;3801;48.876;10.184;2022-12-07T21:54:18;11.77;;;7.37;;
7519;SDS011;3801;48.876;10.184;2022-12-07T21:59:26;16.70;;;9.10;;
7519;SDS011;3801;48.876;10.184;2022-12-07T22:04:30;16.80;;;8.90;;
7519;SDS011;3801;48.876;10.184;2022-12-07T22:09:35;12.90;;;6.97;;
7519;SDS011;3801;48.876;10.184;2022-12-07T22:14:39;10.67;;;6.77;;
7519;SDS011;3801;48.876;10.184;2022-12-07T22:20:00;17.57;;;9.73;;
7519;SDS011;3801;48.876;10.184;2022-12-07T22:25:06;14.03;;;7.90;;
7519;SDS011;3801;48.876;10.184;2022-12-07T22:30:10;16.03;;;9.50;;
7519;SDS011;3801;48.876;10.184;2022-12-07T22:35:14;13.43;;;7.77;;
7519;SDS011;3801;48.876;10.184;2022-12-07T22:40:19;17.83;;;9.73;;
7519;SDS011;3801;48.876;10.184;2022-12-07T22:45:22;15.43;;;8.70;;
7519;SDS011;3801;48.876;10.184;2022-12-07T22:50:26;15.43;;;8.37;;
7519;SDS011;3801;48.876;10.184;2022-12-07T22:55:31;15.17;;;8.50;;
7519;SDS011;3801;48.876;10.184;2022-12-07T23:00:34;15.97;;;9.30;;
7519;SDS011;3801;48.876;10.184;2022-12-07T23:05:40;16.53;;;7.87;;
7519;SDS011;3801;48.876;10.184;2022-12-07T23:10:48;13.87;;;7.57;;
7519;SDS011;3801;48.876;10.184;2022-12-07T23:15:52;15.20;;;8.60;;
7519;SDS011;3801;48.876;10.184;2022-12-07T23:20:56;16.50;;;8.10;;
7519;SDS011;3801;48.876;10.184;2022-12-07T23:26:13;17.37;;;9.40;;
7519;SDS011;3801;48.876;10.184;2022-12-07T23:31:18;22.67;;;11.47;;
7519;SDS011;3801;48.876;10.184;2022-12-07T23:36:23;20.33;;;9.80;;
7519;SDS011;3801;48.876;10.184;2022-12-07T23:41:29;17.00;;;10.63;;
7519;SDS011;3801;48.876;10.184;2022-12-07T23:46:32;23.97;;;11.60;;
7519;SDS011;3801;48.876;10.184;2022-12-07T23:51:36;20.70;;;11.03;;
7519;SDS011;3801;48.876;10.184;2022-12-07T23:56:41;23.30;;;11.67;;
